Time;durP1;ratioP1;P1;durP2;ratioP2;P2;SDS_P1;SDS_P2;PMS_P1;PMS_P2;Temp;Humidity;BMP_temperature;BMP_pressure;BME280_temperature;BME280_humidity;BME280_pressure;Samples;Min_cycle;Max_cycle;Signal;HPM_P1;HPM_P2
2022/01/26 00:00:18;;;;;;;28.17;11.88;;;;;;;1.15;80.51;100657.25;4864192;29;20042;-93
2022/01/26 00:08:27;;;;;;;25.65;10.07;;;;;;;1.70;80.65;100728.03;4847712;29;20068;-93
2022/01/26 00:11:06;;;;;;;26.50;10.75;;;;;;;1.64;80.85;100715.13;4847712;29;20045;-93
2022/01/26 00:13:37;;;;;;;;;;;;;;;1.78;80.15;100735.16;4864286;29;20046;-93
2022/01/26 00:16:12;;;;;;;18.80;8.23;;;;;;;1.68;80.81;100712.00;4833024;29;20286;-93
2022/01/26 00:19:51;;;;;;;18.48;7.28;;;;;;;1.92;80.43;100728.34;4900093;23;20060;-91
2022/01/26 00:22:53;;;;;;;19.20;7.70;;;;;;;1.92;80.67;100728.34;4845649;29;20057;-93
2022/01/26 00:25:36;;;;;;;15.80;8.02;;;;;;;1.81;80.78;100710.16;4798390;29;20137;-90
2022/01/26 00:41:33;;;;;;;18.77;7.90;;;;;;;1.82;80.04;100685.88;4862196;29;20041;-93
2022/01/26 00:44:15;;;;;;;19.63;7.32;;;;;;;2.07;80.53;100729.06;4863013;29;20492;-92
2022/01/26 00:46:49;;;;;;;;;;;;;;;2.17;79.92;100735.44;4863566;29;20050;-93
2022/01/26 00:49:21;;;;;;;16.90;7.22;;;;;;;1.92;80.21;100688.06;4847391;29;19924;-91
2022/01/26 00:52:06;;;;;;;16.98;6.53;;;;;;;1.99;79.91;100706.03;4831940;29;20057;-92
2022/01/26 00:54:38;;;;;;;12.98;6.53;;;;;;;1.97;80.06;100691.63;4863313;29;20053;-92
2022/01/26 00:57:10;;;;;;;16.73;6.93;;;;;;;2.04;79.74;100704.59;4846861;29;20053;-92
2022/01/26 00:59:48;;;;;;;14.00;5.80;;;;;;;1.91;79.56;100691.34;4863206;29;20500;-94
2022/01/26 01:02:26;;;;;;;15.77;6.95;;;;;;;2.15;80.05;100725.28;4862838;29;20057;-94
2022/01/26 01:04:59;;;;;;;13.75;6.13;;;;;;;2.00;80.11;100696.84;4830996;29;20156;-92
2022/01/26 01:07:34;;;;;;;13.15;5.60;;;;;;;1.95;79.96;100689.06;4846937;29;20052;-93
2022/01/26 01:10:08;;;;;;;14.57;6.18;;;;;;;1.42;79.56;100616.75;4846850;29;20050;-92
2022/01/26 01:13:13;;;;;;;12.43;5.05;;;;;;;2.17;79.65;100733.78;4831458;29;20064;-92
2022/01/26 01:15:52;;;;;;;11.50;5.00;;;;;;;2.02;79.51;100720.44;4862479;29;20046;-92
2022/01/26 01:18:32;;;;;;;11.40;5.40;;;;;;;2.07;79.36;100729.06;4862511;29;20060;-93
2022/01/26 01:27:05;;;;;;;;;;;;;;;2.00;78.95;100732.94;4806466;29;20078;-92
2022/01/26 01:29:41;;;;;;;11.52;4.30;;;;;;;1.77;78.88;100694.84;4761727;29;19925;-93
2022/01/26 01:32:39;;;;;;;11.13;4.50;;;;;;;2.01;78.48;100738.84;4805887;29;20047;-93
2022/01/26 01:35:34;;;;;;;11.55;4.93;;;;;;;2.02;78.95;100740.56;4790218;29;20178;-93
2022/01/26 01:38:29;;;;;;;12.82;4.45;;;;;;;1.80;78.75;100703.38;4791608;29;20141;-93
2022/01/26 01:41:05;;;;;;;12.13;4.75;;;;;;;1.95;78.92;100728.47;4790095;29;20054;-91
2022/01/26 01:44:02;;;;;;;11.77;4.93;;;;;;;1.97;78.91;100726.88;4805661;29;20190;-92
2022/01/26 01:46:40;;;;;;;12.18;4.57;;;;;;;1.59;78.22;100674.63;4790929;29;20075;-92
2022/01/26 01:49:21;;;;;;;11.85;4.55;;;;;;;1.60;78.65;100683.06;4790927;29;20548;-93
2022/01/26 01:51:57;;;;;;;12.52;5.05;;;;;;;1.42;78.93;100646.91;4805549;29;20046;-93
2022/01/26 01:54:44;;;;;;;11.45;5.30;;;;;;;1.50;79.24;100655.69;4791739;29;20057;-90
2022/01/26 01:57:21;;;;;;;11.02;5.90;;;;;;;1.53;79.06;100670.94;4790904;29;20498;-92
2022/01/26 01:59:53;;;;;;;12.07;4.97;;;;;;;1.66;78.86;100693.41;4761155;29;20047;-94
2022/01/26 02:02:25;;;;;;;12.45;5.28;;;;;;;1.27;78.94;100614.31;4845803;29;20042;-92
2022/01/26 02:04:55;;;;;;;11.48;5.07;;;;;;;1.49;78.71;100669.06;4846336;29;20085;-92
2022/01/26 02:07:30;;;;;;;13.93;6.05;;;;;;;1.52;78.97;100681.78;4862725;29;20054;-92
2022/01/26 02:10:09;;;;;;;11.23;5.15;;;;;;;1.45;78.94;100662.13;4861828;29;20053;-92
2022/01/26 02:12:43;;;;;;;12.48;5.85;;;;;;;1.36;79.16;100642.44;4830092;29;20053;-91
2022/01/26 02:15:21;;;;;;;11.98;4.80;;;;;;;1.75;78.78;100716.53;4830882;29;20049;-93
2022/01/26 02:18:17;;;;;;;11.93;5.70;;;;;;;1.63;79.35;100698.31;4862164;29;20069;-93
2022/01/26 03:32:08;;;;;;;17.60;7.38;;;;;;;2.20;80.63;100634.88;4821671;29;20066;-88
2022/01/26 03:34:51;;;;;;;16.67;7.25;;;;;;;2.34;80.51;100666.59;4828536;29;20081;-91
2022/01/26 03:37:54;;;;;;;16.75;7.63;;;;;;;2.34;80.99;100669.13;4828975;29;20043;-89
2022/01/26 03:40:36;;;;;;;20.90;9.10;;;;;;;2.28;80.91;100662.13;4798649;29;20061;-89
2022/01/26 03:43:46;;;;;;;19.02;7.60;;;;;;;2.28;80.00;100664.66;4813697;29;20038;-86
2022/01/26 03:47:20;;;;;;;19.08;8.57;;;;;;;2.27;80.15;100662.06;4811178;29;20050;-86
2022/01/26 03:54:08;;;;;;;20.80;8.57;;;;;;;2.25;80.26;100667.03;5041346;23;20061;-88
2022/01/26 04:17:41;;;;;;;16.13;6.63;;;;;;;1.44;80.97;100540.56;962080;23;20246;-88
2022/01/26 04:27:35;;;;;;;18.05;6.90;;;;;;;1.60;81.79;100587.47;4889567;23;20070;-89
2022/01/26 06:35:53;;;;;;;13.88;4.97;;;;;;;1.75;81.52;100694.75;4902780;23;20058;-89
2022/01/26 06:57:41;;;;;;;13.43;5.65;;;;;;;1.62;81.02;100636.19;4819972;29;20054;-90
2022/01/26 07:00:12;;;;;;;12.70;5.30;;;;;;;1.61;80.77;100635.31;4819385;29;20059;-89
2022/01/26 07:02:42;;;;;;;12.00;5.63;;;;;;;1.47;81.10;100605.22;4818956;29;20054;-90
2022/01/26 07:05:13;;;;;;;13.93;6.30;;;;;;;1.70;80.55;100637.44;4819765;29;20471;-89
2022/01/26 07:23:36;;;;;;;15.57;6.72;;;;;;;1.81;80.71;100648.91;4895137;23;19924;-89
2022/01/26 07:26:38;;;;;;;;;;;;;;;2.12;81.13;100692.41;4862245;29;20049;-89
2022/01/26 07:29:27;;;;;;;16.67;6.72;;;;;;;2.23;80.95;100686.22;4845165;29;19974;-89
2022/01/26 07:32:13;;;;;;;17.38;7.00;;;;;;;1.82;80.77;100620.44;4845326;29;20060;-89
2022/01/26 07:34:42;;;;;;;13.68;6.53;;;;;;;1.56;80.73;100546.19;4844799;29;20499;-89
2022/01/26 07:37:14;;;;;;;18.20;7.53;;;;;;;1.71;80.70;100566.19;4858391;29;20069;-89
2022/01/26 07:39:59;;;;;;;15.90;7.13;;;;;;;2.25;80.91;100658.63;4829647;29;20062;-91
2022/01/26 07:42:29;;;;;;;13.18;6.10;;;;;;;1.82;80.09;100570.13;4829748;29;20050;-87
2022/01/26 07:45:33;;;;;;;14.35;5.90;;;;;;;2.57;81.03;100689.56;4829803;29;20050;-90
2022/01/26 07:48:30;;;;;;;17.45;7.43;;;;;;;2.61;80.87;100691.47;4829707;29;20062;-88
2022/01/26 07:51:01;;;;;;;15.23;6.90;;;;;;;2.58;80.41;100675.31;4845943;29;20050;-89
2022/01/26 07:53:39;;;;;;;15.55;7.28;;;;;;;2.59;79.96;100667.81;4829989;29;20054;-88
2022/01/26 07:56:22;;;;;;;15.00;6.97;;;;;;;2.84;79.76;100689.13;4829647;29;20556;-89
2022/01/26 07:58:56;;;;;;;16.10;7.32;;;;;;;2.50;79.88;100632.13;4814465;29;20053;-88
2022/01/26 08:01:44;;;;;;;15.02;7.05;;;;;;;2.79;79.63;100673.78;4845899;29;20076;-89
2022/01/26 08:04:16;;;;;;;15.27;6.88;;;;;;;2.73;79.85;100663.44;4829198;29;20054;-87
2022/01/26 08:06:52;;;;;;;15.85;7.47;;;;;;;2.43;79.45;100602.41;4847640;29;20041;-90
2022/01/26 08:09:21;;;;;;;18.25;7.82;;;;;;;2.80;78.85;100667.97;4814131;29;20118;-88
2022/01/26 08:11:50;;;;;;;19.38;8.52;;;;;;;1.97;79.16;100526.38;4845734;29;20473;-87
2022/01/26 08:14:35;;;;;;;21.83;10.40;;;;;;;2.51;78.67;100593.56;4845205;29;20056;-89
2022/01/26 08:17:10;;;;;;;23.95;13.25;;;;;;;3.07;78.84;100691.03;4829451;29;20050;-89
2022/01/26 08:19:42;;;;;;;22.73;11.15;;;;;;;2.13;78.56;100540.56;4833349;29;20137;-90
2022/01/26 08:22:18;;;;;;;21.75;8.70;;;;;;;2.98;78.68;100667.91;4847139;29;20045;-89
2022/01/26 08:24:49;;;;;;;19.02;8.52;;;;;;;2.91;78.49;100650.78;4861106;29;20045;-86
2022/01/26 08:27:22;;;;;;;17.20;8.40;;;;;;;3.13;77.98;100683.75;4847308;29;20106;-86
2022/01/26 08:30:21;;;;;;;19.35;9.50;;;;;;;3.27;77.97;100685.22;4847264;29;20073;-87
2022/01/26 08:32:50;;;;;;;17.83;8.70;;;;;;;3.33;77.85;100688.03;4863473;29;20050;-88
2022/01/26 08:35:21;;;;;;;19.80;9.07;;;;;;;2.58;77.53;100540.13;4863273;29;20053;-87
2022/01/26 08:37:50;;;;;;;19.13;9.27;;;;;;;3.18;77.68;100636.91;4863093;29;20053;-88
2022/01/26 08:40:23;;;;;;;17.52;8.05;;;;;;;3.11;77.66;100625.69;4847210;29;20054;-87
2022/01/26 08:42:53;;;;;;;17.02;8.00;;;;;;;2.59;77.39;100531.75;4858638;29;20054;-85
2022/01/26 08:45:24;;;;;;;16.92;7.25;;;;;;;3.59;77.00;100679.06;4842482;29;20381;-91
2022/01/26 08:47:54;;;;;;;20.23;8.40;;;;;;;3.62;76.81;100692.69;4846928;29;20053;-89
2022/01/26 08:50:25;;;;;;;;;;;;;;;3.55;76.27;100685.63;4863475;29;20050;-89
2022/01/26 08:52:56;;;;;;;16.60;8.15;;;;;;;3.56;76.49;100671.34;4862101;29;19924;-87
2022/01/26 08:55:28;;;;;;;;;;;;;;;3.66;76.81;100684.44;4863605;29;20527;-87
2022/01/26 08:57:57;;;;;;;15.27;7.32;;;;;;;3.57;76.46;100643.66;4862859;29;19932;-85
2022/01/26 09:00:26;;;;;;;17.98;7.72;;;;;;;3.95;75.98;100686.53;4863176;29;20057;-87
2022/01/26 09:02:57;;;;;;;17.67;7.68;;;;;;;4.01;75.13;100673.28;4855754;29;20053;-87
2022/01/26 09:05:28;;;;;;;14.10;6.63;;;;;;;3.84;75.34;100639.75;4769603;29;20083;-87
2022/01/26 09:07:58;;;;;;;14.60;7.13;;;;;;;4.17;75.44;100689.94;4828437;29;20124;-87
2022/01/26 09:10:29;;;;;;;14.50;6.93;;;;;;;3.49;75.06;100566.75;4828120;29;20408;-86
2022/01/26 09:13:00;;;;;;;15.93;7.65;;;;;;;3.52;74.28;100564.38;4852496;29;20125;-87
2022/01/26 09:15:32;;;;;;;16.60;7.93;;;;;;;4.40;74.77;100689.19;4859825;29;20049;-87
2022/01/26 09:18:05;;;;;;;13.77;6.80;;;;;;;4.04;74.49;100640.56;4862423;29;20053;-87
2022/01/26 09:20:38;;;;;;;14.55;5.78;;;;;;;4.07;74.13;100658.38;4862360;29;20141;-85
2022/01/26 09:23:07;;;;;;;12.00;6.28;;;;;;;4.32;74.08;100698.13;4830711;29;20059;-86
2022/01/26 09:25:36;;;;;;;11.80;5.82;;;;;;;3.86;73.62;100622.16;4846140;29;20041;-87
2022/01/26 09:28:15;;;;;;;14.52;6.72;;;;;;;4.20;73.41;100655.53;4845999;29;20468;-87
2022/01/26 09:30:46;;;;;;;10.00;5.03;;;;;;;4.28;73.33;100684.50;4846095;29;20117;-86
2022/01/26 09:33:19;;;;;;;10.32;4.88;;;;;;;3.50;73.10;100555.88;4862256;29;20055;-90
2022/01/26 09:35:51;;;;;;;12.38;5.85;;;;;;;4.26;72.83;100685.25;4830889;29;20098;-87
2022/01/26 09:38:20;;;;;;;13.13;5.82;;;;;;;4.25;72.66;100663.31;4843376;29;20080;-86
2022/01/26 09:40:54;;;;;;;13.63;5.90;;;;;;;4.63;72.34;100678.34;4845623;29;20046;-87
2022/01/26 09:43:23;;;;;;;12.55;6.53;;;;;;;4.66;72.14;100675.91;4862500;29;20401;-88
2022/01/26 09:46:05;;;;;;;13.98;5.80;;;;;;;4.48;71.50;100634.75;4845587;29;20045;-87
2022/01/26 09:48:42;;;;;;;10.93;5.28;;;;;;;4.20;71.12;100594.06;4846058;29;20057;-90
2022/01/26 09:51:16;;;;;;;14.93;6.85;;;;;;;4.69;71.28;100676.03;4862470;29;20085;-88
2022/01/26 09:53:46;;;;;;;11.20;5.65;;;;;;;4.46;70.99;100631.31;4862522;29;20045;-87
2022/01/26 09:56:18;;;;;;;12.20;5.65;;;;;;;4.68;70.97;100641.41;4861871;29;20050;-90
2022/01/26 09:58:51;;;;;;;13.77;5.38;;;;;;;4.05;70.62;100511.81;4862283;29;20056;-89
2022/01/26 10:01:20;;;;;;;10.82;5.28;;;;;;;4.39;70.29;100566.19;4858396;29;20089;-90
2022/01/26 10:03:52;;;;;;;11.30;5.00;;;;;;;4.67;70.28;100600.13;4842109;29;20045;-88
2022/01/26 10:06:28;;;;;;;11.02;5.07;;;;;;;5.11;70.04;100667.50;4831255;29;20053;-89
2022/01/26 10:17:28;;;;;;;15.88;6.07;;;;;;;4.94;69.21;100549.69;4845764;29;20488;-87
2022/01/26 10:20:00;;;;;;;11.82;4.78;;;;;;;5.40;68.83;100623.00;4843633;29;20057;-87
2022/01/26 10:22:34;;;;;;;15.38;5.72;;;;;;;5.80;68.41;100660.69;4840152;29;20148;-88
2022/01/26 10:25:11;;;;;;;10.18;4.57;;;;;;;5.93;68.18;100657.78;4852632;29;20136;-87
2022/01/26 10:28:02;;;;;;;8.43;4.30;;;;;;;5.62;67.48;100596.75;4859262;29;20145;-87
2022/01/26 10:33:41;;;;;;;6.72;3.63;;;;;;;5.89;66.90;100650.91;4995312;23;20137;-88
2022/01/26 10:36:14;;;;;;;7.53;3.80;;;;;;;5.30;66.64;100534.94;4842985;29;20050;-89
2022/01/26 10:42:39;;;;;;;8.50;3.97;;;;;;;6.07;66.36;100621.94;4826847;29;20042;-89
2022/01/26 10:45:15;;;;;;;9.20;4.50;;;;;;;6.12;65.95;100614.50;4826708;29;20535;-89
2022/01/26 10:47:47;;;;;;;8.23;3.70;;;;;;;6.03;65.31;100599.88;4808580;29;20054;-88
2022/01/26 10:53:15;;;;;;;9.65;4.38;;;;;;;6.29;65.69;100620.97;4826097;29;20061;-89
2022/01/26 10:55:48;;;;;;;11.93;5.47;;;;;;;6.41;65.40;100613.72;4826923;29;20057;-89
2022/01/26 10:58:32;;;;;;;10.75;5.30;;;;;;;6.54;64.85;100626.00;4841988;29;20054;-91
2022/01/26 11:01:06;;;;;;;9.55;4.28;;;;;;;6.54;64.75;100636.13;4767048;29;20081;-89
2022/01/26 11:03:57;;;;;;;7.97;3.90;;;;;;;6.08;64.89;100582.28;4811017;29;20492;-91
2022/01/26 11:06:52;;;;;;;8.55;4.10;;;;;;;6.23;64.95;100630.91;4791760;29;20059;-90
2022/01/26 11:09:30;;;;;;;9.98;4.25;;;;;;;5.97;65.17;100602.19;4808530;29;20113;-89
2022/01/26 11:12:04;;;;;;;8.85;4.00;;;;;;;5.69;65.40;100566.63;4794578;29;20534;-90
2022/01/26 11:14:42;;;;;;;9.45;4.20;;;;;;;5.82;65.94;100604.22;4796444;29;20125;-90
2022/01/26 11:17:24;;;;;;;6.88;3.42;;;;;;;5.68;65.75;100569.97;4796376;29;20058;-90
2022/01/26 11:20:00;;;;;;;7.57;3.75;;;;;;;5.82;65.89;100590.69;4826716;29;20050;-88
2022/01/26 11:26:05;;;;;;;9.18;4.00;;;;;;;5.98;65.92;100595.47;4773092;29;19930;-92
2022/01/26 11:28:47;;;;;;;7.88;4.22;;;;;;;5.54;65.55;100512.09;4772845;30;20048;-90
2022/01/26 11:31:17;;;;;;;9.45;4.13;;;;;;;6.15;66.04;100606.13;4776253;30;20039;-91
2022/01/26 11:34:07;;;;;;;7.68;4.90;;;;;;;6.21;65.97;100589.47;4785871;30;20176;-91
2022/01/26 11:36:36;;;;;;;12.75;6.05;;;;;;;6.24;65.18;100594.59;4790721;29;20121;-91
2022/01/26 11:47:24;;;;;;;6.38;3.65;;;;;;;6.26;64.83;100585.41;4773681;30;20111;-90
2022/01/26 11:50:05;;;;;;;9.07;4.90;;;;;;;6.16;64.71;100570.72;4773528;30;20490;-89
2022/01/26 11:52:46;;;;;;;6.60;3.75;;;;;;;6.32;64.06;100575.44;4773046;29;20391;-88
2022/01/26 11:55:44;;;;;;;11.43;6.65;;;;;;;6.26;64.05;100570.19;4762713;30;20060;-93
2022/01/26 11:58:19;;;;;;;11.45;4.50;;;;;;;6.24;64.27;100571.78;4808444;29;20063;-93
2022/01/26 12:01:11;;;;;;;15.77;4.95;;;;;;;6.28;64.23;100575.28;4809431;29;20133;-95
2022/01/26 12:03:47;;;;;;;15.60;7.18;;;;;;;6.18;63.97;100583.44;4783573;29;20050;-94
2022/01/26 12:06:27;;;;;;;7.75;4.05;;;;;;;5.80;63.98;100534.06;4808401;29;20055;-93
2022/01/26 12:08:58;;;;;;;6.90;3.45;;;;;;;5.96;64.46;100577.69;4810018;29;20483;-95
2022/01/26 12:11:29;;;;;;;5.97;3.20;;;;;;;5.91;64.81;100578.34;4809138;29;20104;-94
2022/01/26 12:14:46;;;;;;;10.13;3.83;;;;;;;5.87;64.78;100561.34;4818785;29;20050;-94
2022/01/26 12:17:30;;;;;;;8.73;4.20;;;;;;;5.82;65.13;100557.75;4724639;30;20088;-94
2022/01/26 12:37:02;;;;;;;9.00;4.22;;;;;;;5.54;65.96;100583.00;4718490;30;20045;-94
2022/01/26 12:42:37;;;;;;;12.48;5.57;;;;;;;5.46;66.21;100587.78;4753573;30;20048;-93
2022/01/26 12:46:00;;;;;;;9.10;4.20;;;;;;;5.46;66.45;100586.91;4753196;30;20044;-94
2022/01/26 12:48:34;;;;;;;11.32;5.93;;;;;;;5.45;66.70;100582.69;4738938;30;20052;-94
2022/01/26 12:51:06;;;;;;;9.65;4.60;;;;;;;5.45;66.28;100583.53;4738636;30;20056;-95
2022/01/26 12:53:40;;;;;;;11.02;4.55;;;;;;;5.30;66.57;100566.13;4764922;29;20131;-94
2022/01/26 12:56:14;;;;;;;10.80;4.60;;;;;;;5.34;66.74;100585.69;4808326;29;20051;-94
2022/01/26 12:58:44;;;;;;;10.27;4.38;;;;;;;5.35;66.55;100589.09;4807417;29;20057;-94
2022/01/26 13:01:25;;;;;;;11.73;4.75;;;;;;;5.08;66.70;100538.41;4807186;29;20055;-93
2022/01/26 13:03:58;;;;;;;9.07;4.35;;;;;;;4.88;67.31;100503.94;4808819;29;20066;-93
2022/01/26 13:06:31;;;;;;;8.70;4.90;;;;;;;5.22;67.15;100577.69;4808131;29;20051;-94
2022/01/26 13:09:17;;;;;;;9.32;5.10;;;;;;;5.29;67.10;100568.63;4808350;29;20066;-95
2022/01/26 13:11:48;;;;;;;9.82;4.88;;;;;;;4.98;66.93;100518.63;4807201;29;20066;-94
2022/01/26 13:14:24;;;;;;;11.60;5.82;;;;;;;5.23;66.97;100569.25;4822673;29;20051;-95
2022/01/26 13:17:06;;;;;;;13.00;5.75;;;;;;;5.27;66.94;100568.59;4807052;29;20062;-94
2022/01/26 13:27:13;;;;;;;10.18;4.78;;;;;;;5.32;67.16;100561.16;4824412;29;20046;-88
2022/01/26 13:30:00;;;;;;;11.20;5.25;;;;;;;5.01;67.23;100516.22;4825438;29;20046;-89
2022/01/26 13:36:04;;;;;;;8.15;4.32;;;;;;;5.13;67.29;100531.81;4824854;29;20087;-88
2022/01/26 13:39:13;;;;;;;10.50;4.80;;;;;;;5.38;67.07;100574.88;4825675;29;20133;-89
2022/01/26 13:42:08;;;;;;;8.82;4.65;;;;;;;5.37;67.10;100578.19;4812785;24;20042;-90
2022/01/26 13:50:30;;;;;;;11.27;5.50;;;;;;;4.97;67.66;100519.44;4842081;29;20049;-89
2022/01/26 13:53:08;;;;;;;8.88;4.63;;;;;;;5.20;67.43;100559.06;4843727;29;20410;-88
2022/01/26 14:02:16;;;;;;;10.52;5.25;;;;;;;5.10;67.47;100587.38;4843293;29;20050;-89
2022/01/26 14:04:57;;;;;;;8.50;5.03;;;;;;;4.97;68.07;100575.06;4826801;29;20381;-89
2022/01/26 14:07:28;;;;;;;10.57;5.38;;;;;;;5.09;67.75;100590.69;4845255;24;20049;-94
2022/01/26 14:10:10;;;;;;;9.98;5.13;;;;;;;4.89;67.72;100556.25;4845950;29;20067;-94
2022/01/26 14:16:24;;;;;;;10.02;4.88;;;;;;;5.00;67.71;100592.91;4841525;29;20052;-94
2022/01/26 14:19:50;;;;;;;10.30;6.05;;;;;;;4.97;68.00;100600.38;4842475;29;20049;-94
2022/01/26 14:22:47;;;;;;;9.43;5.03;;;;;;;4.91;68.11;100585.00;4827395;29;20497;-94
2022/01/26 14:25:40;;;;;;;9.40;4.95;;;;;;;4.97;68.37;100594.44;4833210;29;20046;-94
2022/01/26 14:28:16;;;;;;;10.95;5.43;;;;;;;4.67;68.38;100543.63;4812856;29;20054;-94
2022/01/26 14:30:56;;;;;;;12.02;5.55;;;;;;;5.02;68.38;100593.81;4827314;29;20061;-94
2022/01/26 14:33:49;;;;;;;12.73;6.32;;;;;;;5.00;68.37;100585.31;4827537;29;20058;-95
2022/01/26 14:36:40;;;;;;;10.77;5.93;;;;;;;4.94;68.83;100575.00;4843295;29;20062;-94
2022/01/26 14:40:03;;;;;;;11.18;5.15;;;;;;;4.89;68.54;100589.13;4849630;29;20073;-95
2022/01/26 14:51:15;;;;;;;14.20;5.18;;;;;;;4.66;68.84;100597.53;4818952;29;20048;-94
2022/01/26 15:30:24;;;;;;;11.65;4.60;;;;;;;4.24;69.93;100573.16;4853441;29;20643;-93
2022/01/26 15:50:15;;;;;;;8.13;3.83;;;;;;;3.97;70.25;100576.34;4789505;30;20047;-91
2022/01/26 16:05:21;;;;;;;12.60;5.95;;;;;;;3.91;71.29;100591.22;4692024;30;20049;-87
2022/01/26 18:16:39;;;;;;;13.40;5.75;;;;;;;3.29;73.12;100547.41;4861640;29;20069;-90
2022/01/26 18:32:55;;;;;;;13.63;6.25;;;;;;;2.48;73.70;100462.41;4863398;29;20041;-95
2022/01/26 18:49:37;;;;;;;13.45;6.05;;;;;;;2.69;74.13;100478.47;4875451;24;20032;-96
2022/01/26 18:52:11;;;;;;;13.57;6.55;;;;;;;2.67;74.22;100485.09;4888684;29;20063;-95
2022/01/26 18:54:53;;;;;;;15.25;6.10;;;;;;;2.46;74.55;100448.03;4871526;29;20056;-96
2022/01/26 18:57:36;;;;;;;14.07;6.70;;;;;;;2.92;74.33;100531.53;4857488;29;20049;-96
2022/01/26 19:00:38;;;;;;;15.27;7.97;;;;;;;2.80;74.34;100520.91;4872869;29;20056;-95
2022/01/26 19:09:14;;;;;;;14.32;6.22;;;;;;;2.77;75.27;100530.84;4833084;29;20559;-95
2022/01/26 19:11:46;;;;;;;18.45;7.70;;;;;;;2.04;74.44;100411.72;4885739;29;20053;-94
2022/01/26 19:14:15;;;;;;;;;;;;;;;2.86;74.66;100544.72;4882311;29;20057;-92
2022/01/26 19:17:02;;;;;;;16.38;6.78;;;;;;;2.66;75.48;100541.31;4869420;29;19924;-91
2022/01/26 19:19:45;;;;;;;14.68;6.80;;;;;;;2.63;75.42;100537.81;4866369;29;20097;-92
2022/01/26 19:25:11;;;;;;;16.13;7.22;;;;;;;2.69;76.16;100538.06;4879888;29;20045;-91
2022/01/26 19:27:58;;;;;;;19.45;9.57;;;;;;;2.73;75.53;100560.09;4881367;29;20076;-93
2022/01/26 19:45:22;;;;;;;28.70;10.02;;;;;;;2.71;75.61;100557.50;4867566;29;20056;-93
2022/01/26 19:51:19;;;;;;;25.65;9.20;;;;;;;2.71;75.99;100587.75;4895677;23;20038;-87
2022/01/26 19:54:03;;;;;;;18.38;8.63;;;;;;;2.37;76.19;100508.94;4868593;29;20105;-90
2022/01/26 19:56:47;;;;;;;16.05;7.95;;;;;;;2.08;75.96;100469.00;4885752;29;20045;-86
2022/01/26 19:59:20;;;;;;;19.83;8.10;;;;;;;2.62;75.96;100574.72;4866288;29;20057;-90
2022/01/26 20:02:08;;;;;;;20.05;7.55;;;;;;;2.04;76.02;100467.09;4850045;29;20519;-91
2022/01/26 20:04:51;;;;;;;14.85;7.50;;;;;;;2.32;76.36;100514.56;4848618;29;20058;-87
2022/01/26 20:07:28;;;;;;;17.92;7.60;;;;;;;2.44;75.71;100526.06;4854803;29;20072;-87
2022/01/26 20:10:03;;;;;;;17.65;7.93;;;;;;;2.48;75.67;100537.97;4864563;29;20053;-89
2022/01/26 20:13:21;;;;;;;14.90;7.20;;;;;;;2.53;75.72;100541.56;4848310;29;20045;-87
2022/01/26 20:16:56;;;;;;;20.05;8.88;;;;;;;2.77;76.33;100573.69;4855445;29;20054;-87
2022/01/26 20:19:37;;;;;;;23.15;10.80;;;;;;;2.27;76.28;100486.66;4863728;29;20408;-89
2022/01/26 20:22:18;;;;;;;18.77;8.60;;;;;;;2.36;76.23;100502.16;4832430;29;20049;-90
2022/01/26 20:24:57;;;;;;;15.10;7.43;;;;;;;2.79;76.21;100570.44;4846662;29;20101;-89
2022/01/26 20:28:05;;;;;;;18.45;7.20;;;;;;;2.40;75.63;100506.53;4861703;29;20056;-86
2022/01/26 20:30:51;;;;;;;20.08;7.28;;;;;;;2.71;76.37;100562.53;4864223;29;20453;-89
2022/01/26 20:33:29;;;;;;;15.82;7.35;;;;;;;2.62;76.19;100541.97;4863247;29;20072;-90
2022/01/26 20:35:59;;;;;;;18.83;8.67;;;;;;;2.77;75.73;100561.09;4863507;29;20058;-90
2022/01/26 20:38:37;;;;;;;13.68;6.43;;;;;;;2.76;75.69;100560.22;4847565;29;20130;-92
2022/01/26 20:41:13;;;;;;;19.48;8.50;;;;;;;2.77;75.99;100571.16;4832399;23;20077;-95
2022/01/26 20:43:53;;;;;;;20.35;8.13;;;;;;;1.91;76.32;100429.59;4867323;29;20049;-94
2022/01/26 20:47:00;;;;;;;18.77;7.93;;;;;;;2.11;76.36;100469.16;4849118;29;20053;-93
2022/01/26 20:50:04;;;;;;;16.27;7.65;;;;;;;2.60;76.18;100548.63;4865464;29;20108;-94
2022/01/26 20:53:39;;;;;;;19.05;6.68;;;;;;;2.23;76.33;100479.72;4847625;29;20049;-94
2022/01/26 20:56:10;;;;;;;17.80;7.57;;;;;;;2.30;76.40;100503.56;4847722;29;20082;-93
2022/01/26 20:59:04;;;;;;;17.92;7.40;;;;;;;2.68;76.50;100561.56;4863753;29;20045;-93
2022/01/26 21:01:35;;;;;;;17.73;7.18;;;;;;;2.53;76.54;100544.09;4864447;29;20044;-94
2022/01/26 21:04:08;;;;;;;18.10;8.00;;;;;;;2.68;76.10;100562.44;4848229;29;20050;-94
2022/01/26 21:06:41;;;;;;;17.25;7.40;;;;;;;2.36;76.77;100502.16;4847363;29;20050;-93
2022/01/26 21:09:11;;;;;;;17.30;7.53;;;;;;;2.64;76.63;100558.03;4847173;29;20468;-95
2022/01/26 21:11:41;;;;;;;15.73;6.93;;;;;;;2.42;76.69;100525.13;4847452;29;20045;-95
2022/01/26 21:14:11;;;;;;;16.42;7.72;;;;;;;2.58;76.54;100555.25;4831820;29;20054;-94
2022/01/26 21:16:41;;;;;;;15.00;7.05;;;;;;;2.34;76.83;100513.84;4863425;29;20057;-93
2022/01/26 21:19:14;;;;;;;15.10;7.65;;;;;;;2.62;76.24;100549.53;4847181;29;20053;-93
2022/01/26 21:21:45;;;;;;;15.80;7.18;;;;;;;2.66;76.88;100558.94;4849824;29;20049;-92
2022/01/26 21:24:37;;;;;;;14.18;6.57;;;;;;;2.35;76.62;100510.50;4863179;29;20041;-93
2022/01/26 21:27:09;;;;;;;17.58;7.90;;;;;;;2.37;76.74;100516.50;4862654;29;20053;-95
2022/01/26 21:29:42;;;;;;;15.95;7.20;;;;;;;1.83;77.02;100435.94;4846784;29;20575;-94
2022/01/26 21:32:17;;;;;;;22.27;8.10;;;;;;;2.52;77.26;100534.81;4862790;29;20053;-93
2022/01/26 21:34:56;;;;;;;15.02;6.50;;;;;;;2.15;76.67;100470.13;4831669;29;20054;-94
2022/01/26 21:37:30;;;;;;;11.70;5.63;;;;;;;2.40;76.43;100511.56;4847479;29;20050;-95
2022/01/26 21:40:02;;;;;;;15.25;6.65;;;;;;;2.58;76.43;100530.06;4864299;29;20077;-95
2022/01/26 21:42:34;;;;;;;16.67;7.22;;;;;;;1.71;76.67;100373.34;4863803;29;20050;-95
2022/01/26 21:45:14;;;;;;;16.88;7.18;;;;;;;2.59;76.39;100521.69;4863900;29;20057;-95
2022/01/26 21:47:56;;;;;;;19.27;7.50;;;;;;;2.21;76.42;100461.19;4847897;29;20552;-94
2022/01/26 21:50:36;;;;;;;14.52;6.95;;;;;;;2.45;76.22;100521.84;4863658;29;20516;-94
2022/01/26 21:53:36;;;;;;;18.63;6.68;;;;;;;2.57;76.16;100537.53;4848038;29;20049;-94
2022/01/26 21:56:06;;;;;;;14.27;7.05;;;;;;;2.37;76.86;100514.00;4860014;29;20556;-92
2022/01/26 21:58:36;;;;;;;16.27;7.25;;;;;;;2.40;76.53;100524.19;4862436;29;20053;-94
2022/01/26 22:01:09;;;;;;;13.95;6.82;;;;;;;2.42;76.95;100515.06;4846977;29;20041;-94
2022/01/26 22:03:43;;;;;;;15.90;6.97;;;;;;;2.41;76.58;100523.38;4832413;29;20061;-94
2022/01/26 22:06:30;;;;;;;17.30;7.63;;;;;;;2.15;76.24;100476.03;4863548;29;20077;-93
2022/01/26 22:09:16;;;;;;;15.70;7.00;;;;;;;2.57;76.79;100533.34;4862852;29;20045;-94
2022/01/26 22:11:46;;;;;;;15.23;6.97;;;;;;;2.38;76.43;100505.63;4849046;29;20053;-94
2022/01/26 22:14:28;;;;;;;17.30;7.28;;;;;;;2.58;76.67;100519.97;4865867;29;20552;-93
2022/01/26 22:16:58;;;;;;;18.85;6.68;;;;;;;2.12;76.33;100440.63;4862509;29;20069;-93
2022/01/26 22:19:59;;;;;;;15.55;7.38;;;;;;;2.57;76.11;100523.28;4833670;29;20057;-94
2022/01/26 22:22:44;;;;;;;16.25;6.63;;;;;;;2.49;76.17;100501.94;4847119;29;20057;-94
2022/01/26 22:25:28;;;;;;;14.20;7.18;;;;;;;2.50;76.10;100496.09;4847674;29;20096;-93
2022/01/26 22:28:17;;;;;;;13.88;6.57;;;;;;;2.33;76.47;100471.81;4848821;29;20128;-94
2022/01/26 22:31:08;;;;;;;16.52;7.10;;;;;;;2.27;76.66;100460.59;4847988;29;20061;-94
2022/01/26 22:33:42;;;;;;;16.85;6.88;;;;;;;2.39;76.45;100479.66;4865198;29;20430;-94
2022/01/26 22:36:14;;;;;;;17.02;6.80;;;;;;;1.88;76.31;100394.22;4864302;29;20049;-94
2022/01/26 22:38:43;;;;;;;17.13;7.03;;;;;;;2.04;76.37;100431.88;4864364;29;20632;-94
